Terminal Aerodrome Forecast
Issued by NWS Upton, NY

Home | Current Version | Previous Version | Text Only | Print | Product List | Glossary On
Versions: 1 2 3 4 5 6 7 8 9 10 11 12 13 14 15 16 17 18 19 20 21 22 23 24 25 26 27 28 29
000
FTUS41 KOKX 111337 AAA
TAFJFK
TAF AMD
KJFK 111337Z 1114/1218 24011KT P6SM FEW035 BKN070 BKN220
     FM112200 25008KT P6SM BKN250
     FM120300 20005KT P6SM OVC250
     FM120800 17007KT 6SM -RASN SCT025 OVC100
     FM121200 19012G18KT 4SM -RA BKN020=

USA.gov is the U.S. government's official web portal to all federal, state and local government web resources and services.